Time;durP1;ratioP1;P1;durP2;ratioP2;P2;SDS_P1;SDS_P2;PMS_P1;PMS_P2;Temp;Humidity;BMP_temperature;BMP_pressure;BME280_temperature;BME280_humidity;BME280_pressure;Samples;Min_cycle;Max_cycle;Signal;HPM_P1;HPM_P2
2021/08/23 00:00:16;;;;;;;;;;;;;;;25.80;28.60;99435.84;5032032;28;19929;-75
2021/08/23 00:02:42;;;;;;;;;;;;;;;25.74;28.45;99437.53;5016770;28;19925;-75
2021/08/23 00:05:08;;;;;;;;;;;;;;;25.74;28.44;99436.69;5031409;28;20311;-75
2021/08/23 00:07:34;;;;;;;;;;;;;;;25.67;28.65;99447.69;5015170;28;19933;-73
2021/08/23 00:10:00;;;;;;;;;;;;;;;25.67;28.84;99447.69;5031509;28;19925;-74
2021/08/23 00:12:26;;;;;;;;;;;;;;;25.68;28.92;99454.81;5031360;28;19926;-73
2021/08/23 00:14:53;;;;;;;;;;;;;;;25.66;28.81;99448.75;5031074;28;19969;-72
2021/08/23 00:17:18;;;;;;;;;;;;;;;25.64;28.85;99457.16;5031184;28;19929;-73
2021/08/23 00:19:44;;;;;;;;;;;;;;;25.61;28.59;99452.13;5014962;28;20381;-73
2021/08/23 00:22:20;;;;;;;;;;;;;;;25.61;28.74;99443.94;5031079;28;19988;-73
2021/08/23 00:24:50;;;;;;;;;;;;;;;25.61;28.97;99457.63;5046293;28;19929;-74
2021/08/23 00:27:16;;;;;;;;;;;;;;;25.60;28.87;99450.44;5014574;28;19925;-73
2021/08/23 00:29:42;;;;;;;;;;;;;;;25.58;28.88;99451.72;5030877;28;19929;-74
2021/08/23 00:32:07;;;;;;;;;;;;;;;25.58;28.70;99457.22;5037428;28;19960;-74
2021/08/23 00:34:33;;;;;;;;;;;;;;;25.56;28.77;99445.63;5050670;28;19995;-74
2021/08/23 00:37:01;;;;;;;;;;;;;;;25.56;28.64;99448.34;5034146;28;19964;-73
2021/08/23 00:39:26;;;;;;;;;;;;;;;25.55;28.78;99447.53;5050792;28;19925;-75
2021/08/23 00:41:52;;;;;;;;;;;;;;;25.56;28.85;99449.19;5033631;28;19979;-75
2021/08/23 00:44:18;;;;;;;;;;;;;;;25.56;28.65;99453.84;5034002;28;20470;-74
2021/08/23 00:46:43;;;;;;;;;;;;;;;25.62;28.74;99452.97;5050542;28;20423;-74
2021/08/23 00:49:09;;;;;;;;;;;;;;;25.64;28.58;99461.78;5050598;28;19925;-74
2021/08/23 00:51:35;;;;;;;;;;;;;;;25.65;28.67;99458.00;5067644;28;19925;-74
2021/08/23 00:54:01;;;;;;;;;;;;;;;25.65;28.61;99447.03;5033927;28;19929;-75
2021/08/23 00:56:26;;;;;;;;;;;;;;;25.65;28.92;99453.38;5034227;28;19925;-74
2021/08/23 00:58:53;;;;;;;;;;;;;;;25.64;28.88;99453.59;5034478;28;19968;-75
2021/08/23 01:01:28;;;;;;;;;;;;;;;25.58;28.94;99457.22;5034253;28;19961;-74
2021/08/23 01:03:54;;;;;;;;;;;;;;;25.58;29.08;99458.03;5050867;28;20362;-74
2021/08/23 01:06:20;;;;;;;;;;;;;;;25.56;29.01;99453.84;5035295;28;20395;-76
2021/08/23 01:08:46;;;;;;;;;;;;;;;25.52;29.10;99460.81;5051109;28;19925;-75
2021/08/23 01:11:12;;;;;;;;;;;;;;;25.47;29.05;99455.97;5034667;28;19932;-74
2021/08/23 01:13:44;;;;;;;;;;;;;;;25.51;29.14;99453.66;5033939;28;20403;-74
2021/08/23 01:16:10;;;;;;;;;;;;;;;25.47;29.25;99455.16;5017223;28;19925;-74
2021/08/23 01:18:36;;;;;;;;;;;;;;;25.48;29.31;99451.34;5050263;28;19925;-74
2021/08/23 01:21:03;;;;;;;;;;;;;;;25.47;29.26;99449.69;5033417;28;19947;-72
2021/08/23 01:23:30;;;;;;;;;;;;;;;25.43;29.33;99447.38;5066551;28;19925;-73
2021/08/23 01:25:55;;;;;;;;;;;;;;;25.43;29.21;99452.84;5033817;28;19960;-74
2021/08/23 01:28:37;;;;;;;;;;;;;;;25.46;29.36;99453.44;5017007;28;19988;-73
2021/08/23 01:31:06;;;;;;;;;;;;;;;25.42;29.42;99453.03;5016703;28;19931;-73
2021/08/23 01:33:32;;;;;;;;;;;;;;;25.43;29.22;99466.53;5052716;28;19933;-74
2021/08/23 01:35:58;;;;;;;;;;;;;;;25.46;29.38;99459.75;5036283;28;20031;-75
2021/08/23 01:38:24;;;;;;;;;;;;;;;25.44;29.28;99456.41;5036398;28;20403;-74
2021/08/23 01:41:03;;;;;;;;;;;;;;;25.46;29.33;99464.41;5020035;28;19932;-74
2021/08/23 01:43:28;;;;;;;;;;;;;;;25.48;29.29;99467.78;5036388;28;20388;-74
2021/08/23 01:45:54;;;;;;;;;;;;;;;25.47;29.21;99466.94;5052684;28;19951;-74
2021/08/23 01:48:20;;;;;;;;;;;;;;;25.52;29.10;99464.38;5019714;28;19971;-73
2021/08/23 01:50:46;;;;;;;;;;;;;;;25.56;29.19;99473.00;5035985;28;19931;-74
2021/08/23 01:53:12;;;;;;;;;;;;;;;25.57;29.25;99471.94;5036444;28;19928;-74
2021/08/23 01:55:37;;;;;;;;;;;;;;;25.51;29.37;99467.34;5038553;28;19997;-74
2021/08/23 01:58:04;;;;;;;;;;;;;;;25.50;29.21;99468.38;5039434;28;19931;-74
2021/08/23 02:00:29;;;;;;;;;;;;;;;25.53;29.36;99470.69;5038031;28;19931;-75
2021/08/23 02:02:56;;;;;;;;;;;;;;;25.49;29.38;99475.75;5035943;28;20390;-74
2021/08/23 02:05:23;;;;;;;;;;;;;;;25.52;29.36;99479.97;5036256;28;20017;-75
2021/08/23 02:07:49;;;;;;;;;;;;;;;25.53;29.27;99482.47;5036080;28;20434;-74
2021/08/23 02:10:16;;;;;;;;;;;;;;;25.54;29.48;99467.75;5035719;28;19935;-74
2021/08/23 02:12:42;;;;;;;;;;;;;;;25.53;29.43;99481.63;5052383;28;19928;-74
2021/08/23 02:15:08;;;;;;;;;;;;;;;25.56;29.51;99475.72;5035695;28;20315;-75
2021/08/23 02:17:33;;;;;;;;;;;;;;;25.59;29.34;99480.78;5068888;28;19931;-74
2021/08/23 02:19:59;;;;;;;;;;;;;;;25.56;29.34;99473.84;5019091;28;19925;-75
2021/08/23 02:22:25;;;;;;;;;;;;;;;25.67;29.21;99477.78;5053374;28;20347;-74
2021/08/23 02:24:50;;;;;;;;;;;;;;;25.72;29.17;99475.22;5052036;28;19935;-74
2021/08/23 02:27:16;;;;;;;;;;;;;;;25.71;29.15;99476.28;5035915;28;20272;-75
2021/08/23 02:29:42;;;;;;;;;;;;;;;25.67;29.14;99472.31;5035650;28;20015;-74
2021/08/23 02:32:08;;;;;;;;;;;;;;;25.72;29.09;99475.22;5053225;28;19928;-73
2021/08/23 02:34:34;;;;;;;;;;;;;;;25.77;28.89;99480.91;5035310;28;19928;-74
2021/08/23 02:37:00;;;;;;;;;;;;;;;25.85;28.94;99474.38;5018993;28;20418;-78
2021/08/23 02:39:26;;;;;;;;;;;;;;;25.88;28.91;99479.41;5019237;28;19925;-75
2021/08/23 02:41:53;;;;;;;;;;;;;;;25.94;28.81;99483.16;5051403;28;19928;-75
2021/08/23 02:44:20;;;;;;;;;;;;;;;25.95;28.82;99479.34;5018826;28;20020;-75
2021/08/23 02:46:46;;;;;;;;;;;;;;;26.03;28.58;99479.13;5019270;28;19925;-75
2021/08/23 02:49:12;;;;;;;;;;;;;;;26.08;28.42;99482.03;5035495;28;19925;-74
2021/08/23 02:51:38;;;;;;;;;;;;;;;26.17;28.52;99484.28;5018712;28;20287;-76
2021/08/23 02:54:04;;;;;;;;;;;;;;;26.25;28.24;99485.06;5035047;28;19932;-75
2021/08/23 02:56:29;;;;;;;;;;;;;;;26.26;28.12;99484.88;5035235;28;19948;-75
2021/08/23 02:58:55;;;;;;;;;;;;;;;26.35;28.18;99483.53;5035058;28;20461;-75
2021/08/23 03:01:21;;;;;;;;;;;;;;;26.44;27.95;99488.72;5033935;28;19928;-75
2021/08/23 03:03:47;;;;;;;;;;;;;;;26.54;28.00;99487.22;5037141;28;19954;-74
2021/08/23 03:06:13;;;;;;;;;;;;;;;26.67;27.68;99491.75;5064681;28;20397;-75
2021/08/23 03:08:39;;;;;;;;;;;;;;;26.68;27.61;99479.72;5059517;28;19928;-75
2021/08/23 03:11:05;;;;;;;;;;;;;;;26.77;27.27;99486.59;5042495;28;20299;-73
2021/08/23 03:13:31;;;;;;;;;;;;;;;26.83;27.13;99490.34;5042234;28;20358;-76
2021/08/23 03:15:57;;;;;;;;;;;;;;;26.86;27.10;99482.50;5026538;28;19924;-75
2021/08/23 03:18:23;;;;;;;;;;;;;;;26.99;27.05;99491.69;5058882;28;20440;-75
2021/08/23 03:20:49;;;;;;;;;;;;;;;27.07;26.85;99488.63;5058525;28;20015;-75
2021/08/23 03:23:14;;;;;;;;;;;;;;;27.09;26.89;99494.75;5041880;28;19924;-74
2021/08/23 03:25:40;;;;;;;;;;;;;;;27.22;26.71;99494.63;5059116;28;19931;-74
2021/08/23 03:28:06;;;;;;;;;;;;;;;27.32;26.68;99483.97;5041861;28;19974;-77
2021/08/23 03:30:32;;;;;;;;;;;;;;;27.46;26.46;99494.81;5025620;28;19934;-77
2021/08/23 03:32:57;;;;;;;;;;;;;;;27.52;26.42;99499.38;5058870;28;19931;-75
2021/08/23 03:35:23;;;;;;;;;;;;;;;27.50;26.57;99498.78;5041737;28;19928;-75
2021/08/23 03:37:49;;;;;;;;;;;;;;;27.54;26.67;99494.50;5058686;28;19925;-75
2021/08/23 03:40:15;;;;;;;;;;;;;;;27.31;26.87;99501.50;5039948;28;19924;-75
2021/08/23 03:42:41;;;;;;;;;;;;;;;27.35;27.20;99496.41;5039179;28;19929;-75
2021/08/23 03:45:07;;;;;;;;;;;;;;;27.33;27.20;99498.53;5021650;28;19925;-75
2021/08/23 03:47:32;;;;;;;;;;;;;;;27.47;27.23;99499.22;5041479;28;19924;-75
2021/08/23 03:49:58;;;;;;;;;;;;;;;27.54;27.01;99491.75;5021566;28;19924;-74
2021/08/23 03:52:24;;;;;;;;;;;;;;;27.50;27.11;99494.13;5005347;28;20022;-76
2021/08/23 03:54:50;;;;;;;;;;;;;;;27.52;27.04;99493.88;5021565;28;19925;-76
2021/08/23 03:57:15;;;;;;;;;;;;;;;27.64;27.09;99489.28;5038028;28;19975;-74
2021/08/23 03:59:41;;;;;;;;;;;;;;;27.73;26.73;99493.41;5038082;28;19924;-75
2021/08/23 04:02:07;;;;;;;;;;;;;;;27.74;26.68;99494.25;5055679;28;19947;-75
2021/08/23 04:04:32;;;;;;;;;;;;;;;27.74;26.62;99486.88;5020399;28;20402;-76
2021/08/23 04:06:58;;;;;;;;;;;;;;;27.72;26.64;99491.75;5019121;28;19978;-75
2021/08/23 04:09:24;;;;;;;;;;;;;;;27.82;26.54;99486.53;5004085;28;19972;-74
2021/08/23 04:11:50;;;;;;;;;;;;;;;28.05;26.28;99494.06;5020504;28;19928;-74
2021/08/23 04:14:15;;;;;;;;;;;;;;;28.32;25.97;99491.78;5036997;28;19925;-75
2021/08/23 04:16:41;;;;;;;;;;;;;;;28.76;25.69;99499.75;5020283;28;20038;-76
2021/08/23 04:19:07;;;;;;;;;;;;;;;29.12;25.23;99496.00;5053228;28;19932;-77
2021/08/23 04:21:33;;;;;;;;;;;;;;;29.29;25.06;99496.09;5038069;28;20376;-75
2021/08/23 04:23:59;;;;;;;;;;;;;;;29.48;24.67;99499.53;5037566;28;19982;-76
2021/08/23 04:26:24;;;;;;;;;;;;;;;29.84;24.77;99497.56;5021209;28;20391;-74
2021/08/23 04:28:50;;;;;;;;;;;;;;;29.93;24.62;99490.56;5004997;28;19925;-74
2021/08/23 04:31:16;;;;;;;;;;;;;;;29.94;24.92;99497.75;5037884;28;19964;-74
2021/08/23 04:33:45;;;;;;;;;;;;;;;30.06;24.89;99500.47;5020809;28;20411;-74
2021/08/23 04:36:11;;;;;;;;;;;;;;;30.14;24.94;99500.91;5005111;28;19932;-74
2021/08/23 04:38:37;;;;;;;;;;;;;;;30.35;25.04;99498.53;5004599;28;19925;-75
2021/08/23 04:41:02;;;;;;;;;;;;;;;30.43;25.16;99500.94;5037042;28;19975;-75
2021/08/23 04:43:28;;;;;;;;;;;;;;;30.62;25.16;99505.13;5037272;28;19928;-75
2021/08/23 04:45:54;;;;;;;;;;;;;;;30.89;25.09;99499.78;5021333;28;19931;-75
2021/08/23 04:48:20;;;;;;;;;;;;;;;31.01;25.22;99507.97;5020792;28;20411;-75
2021/08/23 04:50:46;;;;;;;;;;;;;;;31.16;24.87;99504.59;5055113;28;20378;-74
2021/08/23 04:53:12;;;;;;;;;;;;;;;31.37;25.00;99516.84;5054920;28;20020;-76
2021/08/23 04:55:38;;;;;;;;;;;;;;;31.42;24.87;99505.84;5037080;28;19925;-75
2021/08/23 04:58:03;;;;;;;;;;;;;;;31.59;24.64;99508.53;5020733;28;20303;-75
2021/08/23 05:00:29;;;;;;;;;;;;;;;31.82;24.54;99512.97;5037199;28;19932;-75
2021/08/23 05:02:55;;;;;;;;;;;;;;;32.03;23.90;99509.38;5054582;28;19924;-74
2021/08/23 05:05:20;;;;;;;;;;;;;;;32.27;23.63;99509.09;5004029;28;19987;-74
2021/08/23 05:07:46;;;;;;;;;;;;;;;32.47;23.26;99512.09;5036872;28;19960;-75
2021/08/23 05:10:12;;;;;;;;;;;;;;;32.81;22.82;99514.59;5036670;28;19986;-76
2021/08/23 05:12:38;;;;;;;;;;;;;;;32.98;22.51;99511.69;5020387;28;20408;-74
2021/08/23 05:15:04;;;;;;;;;;;;;;;33.20;22.30;99517.94;5036605;28;19932;-75
2021/08/23 05:17:29;;;;;;;;;;;;;;;33.47;21.95;99515.09;5036696;28;20019;-75
2021/08/23 05:19:55;;;;;;;;;;;;;;;33.69;21.68;99512.16;5003605;28;20078;-74
2021/08/23 05:22:21;;;;;;;;;;;;;;;33.81;21.43;99517.47;5054642;28;19929;-75
2021/08/23 05:24:47;;;;;;;;;;;;;;;33.95;21.22;99507.53;5054304;28;19929;-75
2021/08/23 05:27:12;;;;;;;;;;;;;;;33.96;20.79;99508.38;5036815;28;20355;-74
2021/08/23 05:29:38;;;;;;;;;;;;;;;34.02;21.01;99519.25;5036378;28;19967;-74
2021/08/23 05:32:04;;;;;;;;;;;;;;;34.07;20.64;99516.47;5012971;28;19972;-74
2021/08/23 05:34:30;;;;;;;;;;;;;;;34.11;20.70;99505.66;5013177;28;19976;-74
2021/08/23 05:36:56;;;;;;;;;;;;;;;34.02;20.65;99516.47;5013194;28;20422;-75
2021/08/23 05:39:21;;;;;;;;;;;;;;;34.02;20.54;99521.19;5013021;28;19980;-74
2021/08/23 05:41:47;;;;;;;;;;;;;;;34.19;20.46;99512.63;5030143;28;19929;-74
2021/08/23 05:44:13;;;;;;;;;;;;;;;34.04;19.68;99510.63;5013072;28;19964;-75
2021/08/23 05:46:39;;;;;;;;;;;;;;;34.00;19.70;99510.38;5013443;28;19926;-74
2021/08/23 05:49:04;;;;;;;;;;;;;;;34.02;19.51;99507.31;5029503;28;20373;-74
2021/08/23 05:51:30;;;;;;;;;;;;;;;34.08;19.16;99501.53;5045753;28;20019;-75
2021/08/23 05:53:56;;;;;;;;;;;;;;;34.26;19.50;99502.09;5013861;28;19932;-75
2021/08/23 05:56:22;;;;;;;;;;;;;;;34.28;19.15;99494.34;5014240;28;19925;-74
2021/08/23 05:58:47;;;;;;;;;;;;;;;34.30;19.30;99503.22;5013257;28;20027;-75
2021/08/23 06:01:13;;;;;;;;;;;;;;;34.53;19.06;99494.41;5012798;28;19925;-74
2021/08/23 06:03:39;;;;;;;;;;;;;;;34.61;18.56;99497.75;5012679;28;20025;-74
2021/08/23 06:06:07;;;;;;;;;;;;;;;34.73;18.78;99489.97;5012824;28;20028;-74
2021/08/23 06:08:33;;;;;;;;;;;;;;;34.68;18.40;99482.47;5012665;28;19933;-75
2021/08/23 06:11:00;;;;;;;;;;;;;;;34.78;18.60;99487.16;5012772;28;20304;-74
2021/08/23 06:13:25;;;;;;;;;;;;;;;34.86;18.22;99494.94;4996063;28;19925;-74
2021/08/23 06:15:52;;;;;;;;;;;;;;;34.86;18.15;99494.09;4996162;28;19936;-74
2021/08/23 06:18:18;;;;;;;;;;;;;;;35.03;18.08;99487.19;5012709;28;20234;-75
2021/08/23 06:20:44;;;;;;;;;;;;;;;35.28;18.06;99502.13;5045329;28;19932;-75
2021/08/23 06:23:11;;;;;;;;;;;;;;;35.21;17.49;99493.28;5012439;28;19971;-75
2021/08/23 06:25:36;;;;;;;;;;;;;;;35.34;17.83;99484.34;4996109;28;19968;-75
2021/08/23 06:28:03;;;;;;;;;;;;;;;35.57;17.56;99482.88;5028514;28;19932;-74
2021/08/23 06:30:28;;;;;;;;;;;;;;;35.67;17.41;99488.41;5045363;28;19926;-74
2021/08/23 06:32:54;;;;;;;;;;;;;;;35.73;17.52;99490.06;5058383;28;20273;-76
2021/08/23 06:35:20;;;;;;;;;;;;;;;35.64;17.10;99488.16;5015865;28;19936;-75
2021/08/23 06:37:45;;;;;;;;;;;;;;;35.71;17.29;99483.94;5031955;28;19975;-75
2021/08/23 06:40:11;;;;;;;;;;;;;;;35.91;17.11;99494.13;5032187;28;19925;-76
2021/08/23 06:42:37;;;;;;;;;;;;;;;35.93;17.07;99482.72;5016074;28;19948;-75
2021/08/23 06:45:03;;;;;;;;;;;;;;;36.00;16.99;99483.28;5031969;28;19929;-75
2021/08/23 06:47:29;;;;;;;;;;;;;;;36.16;16.78;99475.66;4999255;28;19925;-75
2021/08/23 06:49:55;;;;;;;;;;;;;;;36.24;16.66;99475.06;5015464;28;19925;-74
2021/08/23 06:52:20;;;;;;;;;;;;;;;36.38;16.59;99470.50;5015105;28;19925;-76
2021/08/23 06:54:46;;;;;;;;;;;;;;;36.51;16.25;99474.59;5032825;28;20299;-76
2021/08/23 06:57:12;;;;;;;;;;;;;;;36.66;16.46;99473.63;5015514;28;19929;-75
2021/08/23 06:59:38;;;;;;;;;;;;;;;36.68;16.35;99475.03;4999500;28;19932;-75
2021/08/23 07:02:03;;;;;;;;;;;;;;;36.85;16.31;99469.00;5015406;28;19972;-75
2021/08/23 07:04:29;;;;;;;;;;;;;;;36.95;16.13;99468.13;5015371;28;19925;-74
2021/08/23 07:06:55;;;;;;;;;;;;;;;37.10;16.26;99455.97;5015281;28;19952;-75
2021/08/23 07:09:21;;;;;;;;;;;;;;;37.14;15.96;99465.41;5033021;28;20036;-75
2021/08/23 07:11:47;;;;;;;;;;;;;;;37.05;15.78;99456.00;5015390;28;20454;-75
2021/08/23 07:14:12;;;;;;;;;;;;;;;37.05;15.99;99456.00;5031721;28;19926;-74
2021/08/23 07:16:38;;;;;;;;;;;;;;;37.08;15.88;99461.00;5031515;28;19925;-74
2021/08/23 07:19:04;;;;;;;;;;;;;;;37.34;15.44;99461.56;5031505;28;20388;-73
2021/08/23 07:21:29;;;;;;;;;;;;;;;37.24;15.61;99453.31;5031507;28;19925;-75
2021/08/23 07:23:55;;;;;;;;;;;;;;;37.15;15.42;99455.91;5032690;28;19971;-75
2021/08/23 07:26:21;;;;;;;;;;;;;;;37.12;14.95;99462.06;5031605;28;19936;-74
2021/08/23 07:28:47;;;;;;;;;;;;;;;37.19;15.27;99452.22;5031759;28;19925;-75
2021/08/23 07:31:15;;;;;;;;;;;;;;;37.39;15.01;99456.75;5031221;28;19948;-75
2021/08/23 07:33:42;;;;;;;;;;;;;;;37.54;15.02;99452.13;5015250;28;19933;-75
2021/08/23 07:36:08;;;;;;;;;;;;;;;37.53;14.65;99450.47;4998556;28;20307;-74
2021/08/23 07:38:34;;;;;;;;;;;;;;;37.67;14.94;99455.03;5015013;28;19925;-74
2021/08/23 07:41:03;;;;;;;;;;;;;;;37.78;14.94;99455.72;5031314;28;20002;-74
2021/08/23 07:43:29;;;;;;;;;;;;;;;37.83;14.61;99446.44;5015295;28;19924;-75
2021/08/23 07:45:54;;;;;;;;;;;;;;;37.99;14.58;99449.88;5014889;28;20364;-74
2021/08/23 07:48:20;;;;;;;;;;;;;;;38.01;14.03;99447.63;5014898;28;19926;-74
2021/08/23 07:50:46;;;;;;;;;;;;;;;37.84;14.32;99445.31;5014526;28;19925;-74
2021/08/23 07:53:12;;;;;;;;;;;;;;;37.97;14.33;99452.16;5000926;28;19983;-73
2021/08/23 07:55:38;;;;;;;;;;;;;;;38.04;14.03;99435.88;5034938;28;19925;-75
2021/08/23 07:58:03;;;;;;;;;;;;;;;37.98;14.29;99442.66;5036232;28;19924;-74
2021/08/23 08:00:29;;;;;;;;;;;;;;;38.02;14.29;99446.50;5002312;28;19990;-74
2021/08/23 08:02:55;;;;;;;;;;;;;;;38.17;14.31;99432.31;5018766;28;19947;-74
2021/08/23 08:05:20;;;;;;;;;;;;;;;38.24;14.55;99438.34;5034697;28;20387;-74
2021/08/23 08:07:46;;;;;;;;;;;;;;;38.29;14.19;99434.63;5018254;28;19925;-76
2021/08/23 08:10:12;;;;;;;;;;;;;;;38.33;14.08;99430.94;5017977;28;19925;-74
2021/08/23 08:12:38;;;;;;;;;;;;;;;38.36;14.34;99419.16;5001676;28;19995;-75
2021/08/23 08:15:04;;;;;;;;;;;;;;;38.41;14.23;99432.25;5034668;28;19925;-75
2021/08/23 08:17:30;;;;;;;;;;;;;;;38.53;14.11;99432.59;5018474;28;20414;-74
2021/08/23 08:19:56;;;;;;;;;;;;;;;38.45;14.05;99418.50;5017820;28;19976;-74
2021/08/23 08:22:22;;;;;;;;;;;;;;;38.60;14.04;99415.44;5034361;28;19929;-75
2021/08/23 08:24:49;;;;;;;;;;;;;;;38.75;13.75;99426.34;5017876;28;19929;-74
2021/08/23 08:27:14;;;;;;;;;;;;;;;38.78;14.03;99414.53;5017674;28;20348;-75
2021/08/23 08:29:40;;;;;;;;;;;;;;;38.92;13.78;99419.34;5034142;28;19932;-75
2021/08/23 08:32:06;;;;;;;;;;;;;;;38.66;13.87;99414.19;5017658;28;20037;-75
2021/08/23 08:34:32;;;;;;;;;;;;;;;38.55;13.53;99405.16;5017511;28;20487;-74
2021/08/23 08:36:58;;;;;;;;;;;;;;;38.64;13.70;99402.50;5034120;28;19995;-74
2021/08/23 08:39:24;;;;;;;;;;;;;;;38.86;13.38;99415.84;5001191;28;20403;-75
2021/08/23 08:41:49;;;;;;;;;;;;;;;38.91;13.60;99406.50;5001258;28;20388;-75
2021/08/23 08:44:15;;;;;;;;;;;;;;;38.80;13.49;99406.69;5017102;28;19971;-74
2021/08/23 08:46:41;;;;;;;;;;;;;;;38.97;14.11;99405.25;5017416;28;19929;-74
2021/08/23 08:49:07;;;;;;;;;;;;;;;39.30;13.56;99394.84;5001116;28;19932;-74
2021/08/23 08:51:36;;;;;;;;;;;;;;;39.40;12.59;99388.22;5017160;28;19925;-74
2021/08/23 08:54:02;;;;;;;;;;;;;;;39.55;12.79;99387.88;5017438;28;19929;-74
2021/08/23 08:56:29;;;;;;;;;;;;;;;39.98;12.96;99402.28;5033640;28;19925;-75
2021/08/23 08:58:55;;;;;;;;;;;;;;;40.02;12.96;99391.28;5017305;28;20376;-74
2021/08/23 09:01:21;;;;;;;;;;;;;;;39.68;12.78;99387.03;5000808;28;19936;-74
2021/08/23 09:03:46;;;;;;;;;;;;;;;39.86;12.87;99388.03;5032976;28;19925;-73
2021/08/23 09:06:12;;;;;;;;;;;;;;;39.67;13.00;99379.75;5033793;28;20300;-75
2021/08/23 09:08:40;;;;;;;;;;;;;;;39.88;12.62;99379.34;5033797;28;19948;-75
2021/08/23 09:11:15;;;;;;;;;;;;;;;39.74;12.43;99385.78;5033608;28;19933;-74
2021/08/23 09:13:46;;;;;;;;;;;;;;;39.53;12.62;99378.97;5033436;28;20350;-74
2021/08/23 09:16:12;;;;;;;;;;;;;;;39.21;13.06;99380.75;5017120;28;19925;-74
2021/08/23 09:18:38;;;;;;;;;;;;;;;38.97;12.87;99383.75;5034337;28;20024;-74
2021/08/23 09:21:07;;;;;;;;;;;;;;;39.23;13.24;99372.88;5033288;28;19931;-75
2021/08/23 09:23:40;;;;;;;;;;;;;;;39.66;13.26;99380.09;5033338;28;19971;-75
2021/08/23 09:26:06;;;;;;;;;;;;;;;39.95;12.84;99374.13;5000702;28;19925;-75
2021/08/23 09:28:31;;;;;;;;;;;;;;;40.12;12.39;99371.47;5016675;28;20446;-74
2021/08/23 09:30:58;;;;;;;;;;;;;;;40.37;12.31;99375.59;5016684;28;19925;-75
2021/08/23 09:33:23;;;;;;;;;;;;;;;40.41;12.02;99368.22;5051569;28;19929;-75
2021/08/23 09:35:54;;;;;;;;;;;;;;;40.89;12.08;99369.50;5035813;28;19924;-76
2021/08/23 09:38:20;;;;;;;;;;;;;;;41.14;11.97;99380.00;5019993;28;19925;-74
2021/08/23 09:40:46;;;;;;;;;;;;;;;40.74;11.60;99367.94;5036362;28;19928;-74
2021/08/23 09:43:16;;;;;;;;;;;;;;;40.49;12.12;99377.81;5019565;28;19924;-75
2021/08/23 09:45:52;;;;;;;;;;;;;;;40.01;12.16;99367.25;5036895;28;19935;-76
2021/08/23 09:48:18;;;;;;;;;;;;;;;40.41;11.97;99359.00;5038081;28;19925;-74
2021/08/23 09:50:45;;;;;;;;;;;;;;;40.94;12.18;99355.31;5019682;28;19931;-75
2021/08/23 09:53:11;;;;;;;;;;;;;;;41.42;11.53;99360.16;5019703;28;19928;-74
2021/08/23 09:55:38;;;;;;;;;;;;;;;41.73;11.11;99355.22;5003027;28;20434;-74
2021/08/23 09:58:04;;;;;;;;;;;;;;;41.88;11.13;99359.53;5003686;28;20071;-74
2021/08/23 10:00:30;;;;;;;;;;;;;;;41.68;11.17;99363.81;5019603;28;19924;-74
2021/08/23 10:02:56;;;;;;;;;;;;;;;41.15;11.27;99362.03;5036157;28;19924;-73
2021/08/23 10:05:22;;;;;;;;;;;;;;;41.13;10.88;99350.31;5019775;28;19924;-74
2021/08/23 10:07:48;;;;;;;;;;;;;;;41.62;10.65;99367.91;5036181;28;20410;-73
2021/08/23 10:10:16;;;;;;;;;;;;;;;41.66;10.61;99366.09;5053720;28;19924;-74
2021/08/23 10:12:41;;;;;;;;;;;;;;;41.88;10.90;99358.72;5035530;28;20016;-74
2021/08/23 10:15:07;;;;;;;;;;;;;;;42.18;10.27;99362.50;5052934;28;20379;-74
2021/08/23 10:17:39;;;;;;;;;;;;;;;42.62;10.29;99364.09;5053370;28;19986;-74
2021/08/23 10:20:05;;;;;;;;;;;;;;;42.86;10.07;99357.06;5020155;28;19924;-74
2021/08/23 10:22:31;;;;;;;;;;;;;;;42.64;9.80;99367.38;5035751;28;19929;-75
2021/08/23 10:24:57;;;;;;;;;;;;;;;42.91;10.16;99366.13;5035385;28;19932;-74
2021/08/23 10:27:23;;;;;;;;;;;;;;;43.13;9.96;99367.88;5003376;28;20295;-74
2021/08/23 10:29:49;;;;;;;;;;;;;;;43.46;9.84;99357.94;5019214;28;20465;-74
2021/08/23 10:32:15;;;;;;;;;;;;;;;43.35;9.79;99358.31;5032023;28;20300;-75
2021/08/23 10:34:40;;;;;;;;;;;;;;;43.35;9.68;99363.13;5031865;28;19980;-74
2021/08/23 10:37:15;;;;;;;;;;;;;;;43.69;9.33;99362.09;5015608;28;20350;-74
2021/08/23 10:39:41;;;;;;;;;;;;;;;43.93;9.19;99355.78;5033094;28;19925;-74
2021/08/23 10:42:11;;;;;;;;;;;;;;;43.88;8.93;99345.56;5031907;28;19925;-74
2021/08/23 10:44:37;;;;;;;;;;;;;;;43.34;9.00;99345.41;5032159;28;20348;-75
2021/08/23 10:47:25;;;;;;;;;;;;;;;43.69;9.39;99347.19;5032430;28;20024;-74
2021/08/23 10:49:51;;;;;;;;;;;;;;;44.10;8.56;99338.72;5047625;28;20026;-73
2021/08/23 10:52:17;;;;;;;;;;;;;;;44.50;8.56;99349.44;5015558;28;19925;-74
2021/08/23 10:54:43;;;;;;;;;;;;;;;43.87;8.72;99348.72;5031991;28;19931;-74
2021/08/23 10:57:10;;;;;;;;;;;;;;;44.09;8.77;99348.34;5015682;28;19975;-73
2021/08/23 10:59:48;;;;;;;;;;;;;;;44.48;8.53;99342.50;5015463;28;19975;-74
2021/08/23 11:02:15;;;;;;;;;;;;;;;44.58;8.55;99342.88;5032977;28;20015;-75
2021/08/23 11:05:02;;;;;;;;;;;;;;;44.70;8.14;99344.09;5032290;28;19925;-75
2021/08/23 11:07:29;;;;;;;;;;;;;;;44.50;8.30;99351.41;5015981;28;20391;-75
2021/08/23 11:10:21;;;;;;;;;;;;;;;44.53;8.47;99340.25;5015223;28;19925;-73
2021/08/23 11:12:47;;;;;;;;;;;;;;;44.71;8.14;99340.09;5014711;28;19932;-74
2021/08/23 11:15:19;;;;;;;;;;;;;;;45.15;8.16;99338.38;4999298;28;19925;-74
2021/08/23 11:17:46;;;;;;;;;;;;;;;44.77;8.40;99344.34;5015659;28;20010;-74
2021/08/23 11:20:13;;;;;;;;;;;;;;;44.86;8.21;99336.59;5015293;28;19929;-74
2021/08/23 11:22:39;;;;;;;;;;;;;;;44.90;8.61;99316.97;5015627;28;19975;-73
2021/08/23 11:25:05;;;;;;;;;;;;;;;45.63;8.11;99330.19;5031501;28;20026;-74
2021/08/23 11:27:31;;;;;;;;;;;;;;;46.11;8.07;99336.88;5033706;28;19936;-74
2021/08/23 11:29:57;;;;;;;;;;;;;;;45.82;8.26;99336.06;5019605;28;20399;-74
2021/08/23 11:32:27;;;;;;;;;;;;;;;46.19;8.17;99327.41;5035155;28;19925;-75
2021/08/23 11:34:53;;;;;;;;;;;;;;;46.78;8.22;99332.25;5003187;28;19929;-74
2021/08/23 11:37:22;;;;;;;;;;;;;;;46.15;7.78;99324.47;5018924;28;19932;-74
2021/08/23 11:39:48;;;;;;;;;;;;;;;46.10;7.72;99330.41;5002751;28;19932;-73
2021/08/23 11:42:15;;;;;;;;;;;;;;;45.91;8.23;99325.41;5035278;28;19925;-74
2021/08/23 11:44:46;;;;;;;;;;;;;;;46.29;7.94;99321.25;5002373;28;19931;-73
2021/08/23 11:47:12;;;;;;;;;;;;;;;46.62;8.14;99328.63;5035382;28;19925;-74
2021/08/23 11:49:38;;;;;;;;;;;;;;;46.71;7.99;99320.75;5019067;28;19932;-73
2021/08/23 11:52:14;;;;;;;;;;;;;;;46.53;7.77;99322.28;5018715;28;19925;-75
2021/08/23 11:54:41;;;;;;;;;;;;;;;46.07;8.10;99321.81;5034709;28;19932;-75
2021/08/23 11:57:07;;;;;;;;;;;;;;;46.14;7.80;99320.00;5019130;28;20371;-73
2021/08/23 11:59:32;;;;;;;;;;;;;;;46.59;7.92;99315.22;5018718;28;19953;-74
2021/08/23 12:02:08;;;;;;;;;;;;;;;47.06;7.73;99320.06;5018274;28;20411;-74
2021/08/23 12:04:34;;;;;;;;;;;;;;;47.43;7.66;99329.00;5018272;28;19932;-74
2021/08/23 12:06:59;;;;;;;;;;;;;;;46.99;7.23;99309.38;5019006;28;19925;-74
2021/08/23 12:09:25;;;;;;;;;;;;;;;47.35;7.47;99311.03;5017914;28;19932;-74
2021/08/23 12:11:51;;;;;;;;;;;;;;;47.57;7.10;99314.34;5035557;28;20380;-73
2021/08/23 12:14:17;;;;;;;;;;;;;;;47.59;6.62;99307.13;5017988;28;19935;-75
2021/08/23 12:16:44;;;;;;;;;;;;;;;47.27;6.84;99314.88;5034841;28;20449;-75
2021/08/23 12:19:10;;;;;;;;;;;;;;;47.46;6.95;99319.78;5018135;28;20384;-72
2021/08/23 12:21:36;;;;;;;;;;;;;;;47.64;7.38;99311.66;5035596;28;19925;-74
2021/08/23 12:24:02;;;;;;;;;;;;;;;47.81;6.93;99307.59;5001486;28;19925;-74
2021/08/23 12:26:35;;;;;;;;;;;;;;;47.39;7.26;99309.09;5018148;28;19979;-74
2021/08/23 12:29:01;;;;;;;;;;;;;;;47.44;7.03;99308.84;5034363;28;19932;-74
2021/08/23 12:31:27;;;;;;;;;;;;;;;47.66;7.34;99312.13;5034536;28;20383;-72
2021/08/23 12:33:53;;;;;;;;;;;;;;;47.66;7.13;99306.47;5037514;28;19928;-74
2021/08/23 12:36:18;;;;;;;;;;;;;;;47.12;7.28;99310.88;5037219;28;19978;-75
2021/08/23 12:38:45;;;;;;;;;;;;;;;47.07;7.27;99308.34;5020315;28;20023;-74
2021/08/23 12:41:12;;;;;;;;;;;;;;;46.89;7.18;99307.88;5021428;28;20401;-74
2021/08/23 12:43:38;;;;;;;;;;;;;;;47.14;7.07;99307.72;5037456;28;20283;-73